Terminal Aerodrome Forecast
Issued by NWS Shreveport, LA

Home | Current Version | Previous Version | Text Only | Print | Product List | Glossary On
Versions: 1 2 3 4 5 6 7 8 9 10 11 12 13 14 15 16 17
000
FTUS44 KSHV 251120
TAFTXK
TAF
KTXK 251120Z 2512/2612 16005KT P6SM SCT250
      TEMPO 2512/2513 6SM BR SCT010
     FM251300 19003KT P6SM SCT010 SCT250
     FM251500 VRB04KT P6SM VCSH BKN250
      TEMPO 2519/2523 -TSRA BKN025CB BKN050
     FM252300 VRB03KT P6SM BKN050 BKN120
     FM260000 VRB04KT P6SM BKN250
     FM261000 VRB03KT P6SM FEW020=

USA.gov is the U.S. government's official web portal to all federal, state and local government web resources and services.